Time;durP1;ratioP1;P1;durP2;ratioP2;P2;SDS_P1;SDS_P2;PMS_P1;PMS_P2;Temp;Humidity;BMP_temperature;BMP_pressure;BME280_temperature;BME280_humidity;BME280_pressure;Samples;Min_cycle;Max_cycle;Signal;HPM_P1;HPM_P2
2022/08/12 00:44:49;;;;;;;2.83;1.90;;;;;;;20.16;37.83;98696.28;4975025;28;20200;-51
2022/08/12 00:47:18;;;;;;;4.83;2.20;;;;;;;20.15;38.04;98698.09;4975355;28;20756;-52
2022/08/12 00:49:48;;;;;;;3.10;2.17;;;;;;;20.12;38.01;98697.72;4973689;28;20207;-51
2022/08/12 00:52:16;;;;;;;4.07;1.93;;;;;;;20.17;38.25;98705.84;4973253;28;20279;-51
2022/08/12 00:54:45;;;;;;;3.53;2.13;;;;;;;20.09;38.25;98698.97;4975071;28;20207;-52
2022/08/12 00:57:14;;;;;;;2.60;2.03;;;;;;;20.20;38.36;98695.63;4973144;28;20677;-51
2022/08/12 00:59:47;;;;;;;3.07;1.80;;;;;;;20.17;38.48;98701.34;4973820;28;20509;-52
2022/08/12 01:02:22;;;;;;;4.17;2.03;;;;;;;20.18;38.69;98702.97;4974665;28;20287;-52
2022/08/12 01:13:14;;;;;;;2.97;2.07;;;;;;;20.13;38.51;98702.84;4973807;28;20231;-51
2022/08/12 01:15:41;;;;;;;1.73;1.53;;;;;;;20.12;38.91;98705.69;4974975;28;20560;-53
2022/08/12 01:18:09;;;;;;;3.40;2.07;;;;;;;20.23;38.55;98691.75;4975169;28;20261;-52
2022/08/12 01:20:42;;;;;;;2.50;1.73;;;;;;;20.19;39.37;98694.00;4975344;28;20200;-53
2022/08/12 01:23:29;;;;;;;2.03;1.70;;;;;;;20.13;39.04;98697.53;4973108;28;20224;-51
2022/08/12 01:25:59;;;;;;;2.20;2.00;;;;;;;20.17;38.71;98695.25;4973912;28;20223;-52
2022/08/12 01:28:30;;;;;;;3.87;1.80;;;;;;;20.32;38.58;98703.75;4974202;28;20194;-52
2022/08/12 01:30:58;;;;;;;2.73;2.00;;;;;;;20.40;38.35;98700.00;4974060;28;20196;-49
2022/08/12 01:33:27;;;;;;;3.17;1.90;;;;;;;20.45;37.98;98697.53;4973614;28;20191;-52
2022/08/12 01:36:01;;;;;;;3.63;1.80;;;;;;;20.39;38.39;98695.75;4974455;28;20267;-54
2022/08/12 01:38:33;;;;;;;6.30;2.30;;;;;;;20.46;38.11;98693.84;4974433;28;20704;-51
2022/08/12 01:41:02;;;;;;;4.47;2.07;;;;;;;20.49;37.72;98701.38;4972232;28;20202;-52
2022/08/12 01:43:31;;;;;;;3.00;1.67;;;;;;;20.44;38.06;98690.59;4972404;28;20654;-53
2022/08/12 01:46:06;;;;;;;4.57;1.90;;;;;;;20.45;38.15;98691.44;4974281;28;20213;-53
2022/08/12 01:48:48;;;;;;;3.73;2.07;;;;;;;20.41;38.16;98685.72;4972609;28;20204;-54
2022/08/12 01:51:30;;;;;;;4.23;2.10;;;;;;;20.37;38.83;98689.84;4972013;28;20662;-51
2022/08/12 01:54:04;;;;;;;2.27;1.70;;;;;;;20.31;39.02;98685.38;4973633;28;20230;-51
2022/08/12 01:56:42;;;;;;;2.27;1.70;;;;;;;20.33;38.80;98688.63;4973632;28;20284;-51
2022/08/12 02:01:58;;;;;;;6.50;2.00;;;;;;;20.41;38.78;98688.38;4973763;28;20212;-52
2022/08/12 02:13:31;;;;;;;5.03;1.73;;;;;;;19.79;40.66;98690.69;4973680;28;20225;-53
2022/08/12 02:16:02;;;;;;;4.40;2.07;;;;;;;19.84;40.07;98685.59;4971890;28;20189;-51
2022/08/12 02:18:44;;;;;;;2.27;1.80;;;;;;;19.85;40.16;98684.56;4974069;28;20189;-52
2022/08/12 02:21:22;;;;;;;5.07;2.20;;;;;;;19.79;40.57;98688.88;4972677;28;20232;-52
2022/08/12 02:23:49;;;;;;;2.87;1.90;;;;;;;19.85;40.27;98680.09;4971787;28;20215;-54
2022/08/12 02:26:18;;;;;;;2.30;1.50;;;;;;;19.82;39.80;98685.81;4972334;28;20223;-51
2022/08/12 02:28:46;;;;;;;2.50;1.97;;;;;;;19.88;40.19;98686.78;4971540;28;20294;-51
2022/08/12 02:31:14;;;;;;;3.17;2.00;;;;;;;19.98;39.51;98675.78;4973305;28;20189;-53
2022/08/12 02:33:42;;;;;;;4.30;1.93;;;;;;;19.96;39.43;98675.97;4972493;28;20225;-55
2022/08/12 02:36:09;;;;;;;2.60;1.80;;;;;;;19.97;39.73;98679.47;4969098;28;20286;-55
2022/08/12 02:38:37;;;;;;;3.33;1.80;;;;;;;20.04;39.68;98683.69;4973463;28;20194;-55
2022/08/12 02:41:09;;;;;;;4.07;1.70;;;;;;;20.04;40.06;98673.09;4973016;28;20200;-55
2022/08/12 02:43:46;;;;;;;2.77;1.93;;;;;;;20.12;39.21;98663.28;4972431;28;20226;-53
2022/08/12 02:46:18;;;;;;;3.27;1.80;;;;;;;20.11;39.84;98661.66;4972093;28;20314;-51
2022/08/12 02:48:49;;;;;;;3.83;2.30;;;;;;;20.12;39.98;98663.28;4970008;28;20193;-51
2022/08/12 02:51:19;;;;;;;4.47;1.93;;;;;;;20.00;40.37;98666.59;4972758;28;20669;-52
2022/08/12 02:53:46;;;;;;;2.80;2.00;;;;;;;19.88;40.39;98660.31;4973078;28;20205;-52
2022/08/12 02:56:13;;;;;;;3.17;1.87;;;;;;;19.76;40.85;98658.31;4972802;28;20192;-51
2022/08/12 02:58:40;;;;;;;3.10;1.93;;;;;;;19.67;40.70;98664.06;4972883;28;20201;-51
2022/08/12 03:01:08;;;;;;;4.33;2.10;;;;;;;19.71;41.54;98665.28;4969716;28;20201;-53
2022/08/12 03:03:39;;;;;;;2.23;1.80;;;;;;;19.84;40.61;98665.22;4972506;28;20268;-53
2022/08/12 03:06:08;;;;;;;3.93;2.00;;;;;;;19.98;40.59;98658.03;4972831;28;20218;-52
2022/08/12 03:08:41;;;;;;;4.10;2.00;;;;;;;19.94;40.58;98656.03;4971583;28;20197;-54
2022/08/12 03:11:31;;;;;;;2.70;2.00;;;;;;;20.23;39.99;98657.31;4963332;28;20287;-53
2022/08/12 03:14:00;;;;;;;4.07;2.00;;;;;;;20.25;39.82;98652.59;4967092;28;20192;-51
2022/08/12 03:16:54;;;;;;;3.43;1.73;;;;;;;20.29;39.80;98658.28;4968443;28;20199;-51
2022/08/12 03:19:23;;;;;;;3.37;1.80;;;;;;;20.39;39.91;98663.13;4968311;28;20198;-52
2022/08/12 03:21:55;;;;;;;2.30;2.00;;;;;;;20.35;40.01;98657.44;4966657;28;20309;-51
2022/08/12 03:24:26;;;;;;;2.60;1.63;;;;;;;20.23;39.64;98652.00;4966944;28;20286;-51
2022/08/12 03:26:54;;;;;;;3.23;2.20;;;;;;;20.08;40.37;98662.06;4966770;28;20228;-51
2022/08/12 03:29:27;;;;;;;4.60;1.87;;;;;;;20.17;40.57;98664.25;4967104;28;20338;-53
2022/08/12 03:31:59;;;;;;;2.00;1.80;;;;;;;20.06;40.41;98657.81;4967793;28;20217;-51
2022/08/12 03:34:34;;;;;;;3.97;1.67;;;;;;;20.12;40.79;98663.28;4966288;28;20203;-51
2022/08/12 03:37:20;;;;;;;6.77;2.17;;;;;;;19.99;41.97;98669.47;4966720;28;20569;-51
2022/08/12 03:39:47;;;;;;;2.57;1.93;;;;;;;19.88;41.13;98666.44;4951345;28;20192;-51
2022/08/12 03:42:24;;;;;;;4.07;2.20;;;;;;;19.85;41.53;98674.78;4965429;28;20240;-51
2022/08/12 04:01:56;;;;;;;2.57;1.90;;;;;;;18.69;44.82;98672.53;4966014;28;20222;-51
2022/08/12 04:04:24;;;;;;;8.63;2.20;;;;;;;18.57;45.10;98666.19;4955892;28;20229;-51
2022/08/12 04:06:52;;;;;;;3.73;1.93;;;;;;;18.48;45.72;98672.69;4960020;28;20737;-51
2022/08/12 04:09:21;;;;;;;5.03;2.07;;;;;;;18.37;45.73;98668.81;4964503;28;20200;-53
2022/08/12 04:14:34;;;;;;;5.13;2.40;;;;;;;18.16;45.85;98665.31;4973881;28;20194;-51
2022/08/12 04:17:02;;;;;;;2.97;1.93;;;;;;;18.13;46.18;98671.00;4955245;28;20201;-52
2022/08/12 04:19:29;;;;;;;2.80;2.30;;;;;;;18.07;47.02;98669.94;4975390;28;20659;-53
2022/08/12 04:21:57;;;;;;;4.87;2.13;;;;;;;17.97;46.72;98666.88;4972031;28;20222;-51
2022/08/12 04:24:25;;;;;;;2.93;2.40;;;;;;;17.92;46.69;98672.72;4971553;28;20201;-51
2022/08/12 04:26:54;;;;;;;2.60;2.00;;;;;;;17.93;47.34;98673.56;4973892;28;20223;-51
2022/08/12 04:29:21;;;;;;;2.73;2.30;;;;;;;17.91;47.82;98675.56;4974723;28;20195;-52
2022/08/12 04:31:48;;;;;;;3.83;2.37;;;;;;;17.85;47.78;98666.59;4972378;28;20225;-51
2022/08/12 04:34:15;;;;;;;4.07;2.60;;;;;;;17.85;47.75;98672.72;4972272;28;20225;-53
2022/08/12 04:36:43;;;;;;;5.33;3.03;;;;;;;17.82;47.54;98669.63;4972820;28;20214;-52
2022/08/12 04:39:12;;;;;;;5.17;2.80;;;;;;;17.80;47.65;98677.75;4971169;28;20202;-51
2022/08/12 04:41:40;;;;;;;6.63;3.10;;;;;;;17.69;48.21;98683.59;4971863;28;20209;-51
2022/08/12 04:44:08;;;;;;;6.03;3.20;;;;;;;17.63;48.86;98681.75;4971043;28;20257;-51
2022/08/12 04:46:35;;;;;;;4.53;2.90;;;;;;;17.54;48.86;98688.97;4975443;28;20679;-53
2022/08/12 04:49:04;;;;;;;5.20;2.57;;;;;;;17.46;49.25;98684.69;4972371;28;20204;-52
2022/08/12 04:51:31;;;;;;;5.47;2.80;;;;;;;17.36;49.46;98692.13;4972246;28;20221;-51
2022/08/12 04:53:59;;;;;;;4.20;3.07;;;;;;;17.34;49.57;98689.72;4973347;28;20243;-52
2022/08/12 04:56:28;;;;;;;8.47;3.77;;;;;;;17.24;49.90;98695.31;4974015;28;20217;-53
2022/08/12 04:58:55;;;;;;;6.80;3.87;;;;;;;17.13;50.18;98703.75;4972247;28;20206;-51
2022/08/12 05:01:22;;;;;;;4.70;3.40;;;;;;;17.02;50.62;98701.63;4971547;28;20231;-51
2022/08/12 05:03:51;;;;;;;6.60;3.33;;;;;;;16.96;51.44;98690.84;4972316;28;20193;-51
2022/08/12 05:06:18;;;;;;;7.47;3.70;;;;;;;16.91;51.68;98695.88;4972460;28;20228;-51
2022/08/12 05:08:45;;;;;;;4.70;3.70;;;;;;;16.86;52.16;98702.69;4972773;28;20208;-53
2022/08/12 05:11:11;;;;;;;6.87;3.60;;;;;;;16.86;51.74;98697.41;4971197;28;20202;-53
2022/08/12 05:13:41;;;;;;;5.10;3.10;;;;;;;16.79;51.84;98698.19;4970787;28;20287;-51
2022/08/12 05:16:08;;;;;;;6.83;3.80;;;;;;;16.76;52.80;98705.66;4976164;28;20204;-52
2022/08/12 05:18:37;;;;;;;4.27;3.47;;;;;;;16.72;52.73;98691.22;4977084;28;20192;-53
2022/08/12 05:21:05;;;;;;;8.50;3.73;;;;;;;16.75;52.52;98699.56;4973761;28;20280;-52
2022/08/12 05:23:32;;;;;;;5.87;3.67;;;;;;;16.70;52.95;98701.16;4968761;28;20200;-51
2022/08/12 05:26:00;;;;;;;3.40;3.10;;;;;;;16.67;52.86;98697.88;4969980;28;20198;-53
2022/08/12 05:28:27;;;;;;;4.50;3.40;;;;;;;16.64;53.31;98706.16;4968988;28;20212;-51
2022/08/12 05:30:57;;;;;;;7.37;3.40;;;;;;;16.60;53.63;98693.53;4969033;28;20219;-51
2022/08/12 05:33:25;;;;;;;8.03;3.70;;;;;;;16.56;54.20;98705.44;4969087;28;20236;-52
2022/08/12 05:35:52;;;;;;;5.53;3.60;;;;;;;16.52;54.67;98703.19;4969483;28;20819;-51
2022/08/12 05:41:17;;;;;;;8.67;3.50;;;;;;;16.42;54.82;98713.25;4967434;28;20204;-51
2022/08/12 05:43:46;;;;;;;5.73;3.57;;;;;;;16.42;54.73;98718.50;4968459;28;20282;-51
2022/08/12 05:46:14;;;;;;;5.53;3.30;;;;;;;16.40;54.67;98717.88;4968002;28;20203;-51
2022/08/12 05:48:41;;;;;;;4.30;3.30;;;;;;;16.38;55.56;98720.69;4971556;28;20199;-51
2022/08/12 05:51:10;;;;;;;4.70;3.20;;;;;;;16.44;55.35;98720.94;4968260;28;20198;-53
2022/08/12 05:53:37;;;;;;;7.67;3.20;;;;;;;16.46;55.31;98722.38;4967969;28;20280;-54
2022/08/12 05:56:05;;;;;;;7.50;3.37;;;;;;;16.44;55.47;98718.31;4969020;28;20731;-51
2022/08/12 05:58:33;;;;;;;6.87;3.10;;;;;;;16.46;55.22;98726.84;4970264;28;20209;-51
2022/08/12 06:01:00;;;;;;;7.83;3.17;;;;;;;16.50;55.33;98725.47;4969264;28;20270;-50
2022/08/12 06:03:29;;;;;;;7.97;2.90;;;;;;;16.51;55.30;98721.84;4969407;28;20233;-51
2022/08/12 06:05:57;;;;;;;5.17;2.80;;;;;;;16.58;55.56;98727.16;4969012;28;20196;-51
2022/08/12 06:08:26;;;;;;;6.27;2.80;;;;;;;16.58;54.88;98724.53;4967332;28;20269;-53
2022/08/12 06:10:52;;;;;;;9.13;3.30;;;;;;;16.67;55.12;98723.41;4968197;28;20193;-54
2022/08/12 06:13:20;;;;;;;10.80;3.27;;;;;;;16.70;54.36;98730.13;4967642;28;20231;-51
2022/08/12 06:15:48;;;;;;;11.07;3.27;;;;;;;16.81;54.49;98727.00;4965954;28;20204;-52
2022/08/12 06:18:14;;;;;;;7.17;3.83;;;;;;;16.87;54.66;98728.88;4967127;28;20296;-52
2022/08/12 06:20:43;;;;;;;8.70;3.57;;;;;;;16.99;54.45;98736.28;4970204;28;20206;-51
2022/08/12 06:23:10;;;;;;;5.60;3.40;;;;;;;17.06;54.06;98735.34;4968815;28;20220;-51
2022/08/12 06:25:37;;;;;;;5.43;3.57;;;;;;;17.16;53.76;98737.66;4968234;28;20259;-53
2022/08/12 06:28:14;;;;;;;8.80;3.43;;;;;;;17.27;53.35;98733.69;4970297;28;20252;-52
2022/08/12 06:30:41;;;;;;;7.30;3.60;;;;;;;17.36;53.69;98731.72;4966980;28;20202;-54
2022/08/12 06:33:08;;;;;;;6.67;3.63;;;;;;;17.47;53.24;98730.38;4966738;28;20292;-53
2022/08/12 06:35:35;;;;;;;5.67;3.83;;;;;;;17.53;52.76;98740.13;4967027;28;20533;-51
2022/08/12 06:38:03;;;;;;;5.90;3.60;;;;;;;17.66;52.76;98734.94;4968078;28;20201;-54
2022/08/12 06:43:14;;;;;;;5.57;3.60;;;;;;;18.04;51.68;98735.56;4967804;28;20315;-51
2022/08/12 06:45:46;;;;;;;6.23;3.63;;;;;;;18.22;51.43;98737.66;4967715;28;20201;-51
2022/08/12 06:48:13;;;;;;;6.23;3.80;;;;;;;18.44;50.99;98736.53;4967186;28;20318;-51
2022/08/12 06:50:41;;;;;;;7.80;3.67;;;;;;;18.60;50.86;98734.53;4969174;28;20199;-50
2022/08/12 06:53:09;;;;;;;6.60;3.63;;;;;;;18.79;50.14;98734.75;4952731;28;20222;-51
2022/08/12 06:55:38;;;;;;;11.57;3.70;;;;;;;18.93;50.20;98731.13;4971076;28;20692;-51
2022/08/12 06:58:05;;;;;;;6.30;4.10;;;;;;;19.12;49.04;98734.81;4970549;28;20213;-51
2022/08/12 07:00:33;;;;;;;9.85;4.18;;;;;;;19.30;49.42;98736.81;4969418;28;20446;-53
2022/08/12 07:03:03;;;;;;;6.13;3.60;;;;;;;19.43;49.49;98733.38;4968983;28;20696;-52
2022/08/12 07:05:31;;;;;;;7.30;3.40;;;;;;;19.59;48.01;98736.59;4970293;28;20207;-51
2022/08/12 07:08:10;;;;;;;8.70;3.20;;;;;;;19.71;47.32;98739.41;4972096;28;20240;-53
2022/08/12 07:10:41;;;;;;;7.27;3.30;;;;;;;19.76;46.83;98731.66;4972129;28;20865;-52
2022/08/12 07:13:09;;;;;;;6.07;3.33;;;;;;;19.87;46.71;98736.31;4972662;28;20224;-51
2022/08/12 07:15:36;;;;;;;5.80;3.27;;;;;;;19.99;46.52;98735.69;4971393;28;20570;-51
2022/08/12 07:18:08;;;;;;;7.20;3.73;;;;;;;20.05;46.35;98734.88;4970050;28;20228;-54
2022/08/12 07:20:35;;;;;;;4.80;3.30;;;;;;;20.12;46.65;98738.31;4972069;28;20185;-53
2022/08/12 07:23:04;;;;;;;5.93;3.47;;;;;;;20.26;45.76;98732.91;4973167;28;20778;-51
2022/08/12 07:25:34;;;;;;;4.83;3.33;;;;;;;20.35;46.45;98729.00;4970345;28;20286;-51
2022/08/12 07:28:02;;;;;;;5.00;3.20;;;;;;;20.45;45.62;98737.31;4970820;28;20223;-52
2022/08/12 07:30:31;;;;;;;4.00;2.97;;;;;;;20.55;45.61;98734.22;4969945;28;20209;-54
2022/08/12 07:33:00;;;;;;;5.03;3.20;;;;;;;20.74;45.65;98756.31;4967932;28;20238;-51
2022/08/12 07:35:28;;;;;;;9.63;3.33;;;;;;;20.91;45.24;98732.75;4968908;28;20204;-50
2022/08/12 07:37:55;;;;;;;7.97;3.17;;;;;;;21.02;45.23;98747.19;4951754;28;20214;-51
2022/08/12 07:40:22;;;;;;;4.50;2.80;;;;;;;21.19;44.42;98744.00;4968410;28;20204;-51
2022/08/12 07:42:51;;;;;;;5.87;3.23;;;;;;;21.35;44.49;98735.44;4965619;28;20220;-54
2022/08/12 07:45:19;;;;;;;6.30;3.00;;;;;;;21.52;44.44;98746.31;4969240;28;20199;-51
2022/08/12 07:47:47;;;;;;;6.90;3.20;;;;;;;21.78;43.87;98754.28;4968480;28;20243;-51
2022/08/12 07:50:16;;;;;;;6.20;3.00;;;;;;;21.95;43.59;98731.38;4969104;28;20197;-51
2022/08/12 07:52:47;;;;;;;5.83;2.80;;;;;;;22.11;42.58;98745.09;4973036;28;20222;-53
2022/08/12 07:55:17;;;;;;;6.00;3.23;;;;;;;22.21;42.40;98744.56;4969620;28;20280;-51
2022/08/12 07:58:04;;;;;;;7.03;3.10;;;;;;;22.37;41.74;98743.94;4970915;28;20218;-51
2022/08/12 08:00:33;;;;;;;7.07;2.67;;;;;;;22.46;41.99;98746.31;4971107;28;20197;-52
2022/08/12 08:03:01;;;;;;;4.77;2.87;;;;;;;22.66;41.32;98744.19;4966910;28;20229;-51
2022/08/12 08:05:32;;;;;;;2.80;2.30;;;;;;;23.03;37.19;98737.06;4968123;28;20585;-54
2022/08/12 08:08:01;;;;;;;1.70;1.60;;;;;;;23.67;34.43;98731.88;4969062;28;20234;-52
2022/08/12 08:10:29;;;;;;;4.47;2.13;;;;;;;23.74;34.53;98745.09;4972207;28;20213;-52
2022/08/12 08:12:57;;;;;;;3.93;1.80;;;;;;;24.01;33.52;98731.25;4968051;28;20781;-51
2022/08/12 08:15:29;;;;;;;3.23;1.90;;;;;;;24.11;33.41;98749.31;4975995;28;20221;-52
2022/08/12 08:18:01;;;;;;;2.00;1.80;;;;;;;24.27;33.59;98739.75;4964829;28;20255;-55
2022/08/12 08:20:32;;;;;;;2.30;2.00;;;;;;;24.57;32.52;98739.50;4966489;28;20194;-51
2022/08/12 08:23:00;;;;;;;4.30;1.93;;;;;;;24.62;32.63;98741.47;4968400;28;20208;-52
2022/08/12 08:25:30;;;;;;;2.50;1.80;;;;;;;24.68;32.29;98753.03;4971011;28;20662;-53
2022/08/12 08:28:00;;;;;;;2.10;1.53;;;;;;;24.75;31.38;98749.19;4968677;28;20296;-49
2022/08/12 08:30:30;;;;;;;2.77;2.17;;;;;;;24.79;30.91;98762.06;4967276;28;20229;-50
2022/08/12 08:32:57;;;;;;;2.00;1.80;;;;;;;24.84;31.31;98748.81;4968763;28;20233;-49
2022/08/12 08:35:26;;;;;;;4.03;1.63;;;;;;;24.93;30.99;98743.84;4975138;28;20209;-50
2022/08/12 08:37:54;;;;;;;2.73;1.83;;;;;;;25.04;30.79;98748.31;4969528;28;20260;-51
2022/08/12 08:43:06;;;;;;;1.80;1.60;;;;;;;25.08;30.50;98752.13;4969268;28;20243;-49
2022/08/12 08:45:34;;;;;;;3.00;1.57;;;;;;;25.17;30.82;98755.19;4969056;28;20194;-49
2022/08/12 08:48:01;;;;;;;4.97;1.60;;;;;;;25.20;30.13;98752.84;4970160;28;20235;-52
2022/08/12 08:50:28;;;;;;;3.40;1.70;;;;;;;25.24;30.10;98745.13;4967397;28;20308;-49
2022/08/12 08:52:55;;;;;;;2.38;1.73;;;;;;;25.30;30.03;98741.50;4969572;28;20269;-49
2022/08/12 08:55:21;;;;;;;2.90;1.73;;;;;;;25.43;29.53;98743.03;4967746;28;20208;-49
2022/08/12 08:57:53;;;;;;;2.37;1.60;;;;;;;25.52;29.31;98740.75;4970857;28;20208;-49
2022/08/12 09:00:21;;;;;;;4.87;1.70;;;;;;;25.67;28.43;98726.78;4972038;28;20205;-49
2022/08/12 09:02:49;;;;;;;2.78;1.63;;;;;;;25.79;28.57;98746.19;4969306;28;20238;-49
2022/08/12 09:05:17;;;;;;;4.32;1.63;;;;;;;25.73;28.65;98741.81;4970991;28;20692;-49
2022/08/12 09:07:46;;;;;;;3.70;2.00;;;;;;;25.74;28.19;98739.97;4974339;28;20208;-49
2022/08/12 09:10:16;;;;;;;3.37;2.00;;;;;;;25.74;28.23;98735.44;4970277;28;20211;-49
2022/08/12 09:15:28;;;;;;;2.17;1.47;;;;;;;25.87;28.48;98725.41;4945728;28;20736;-49
2022/08/12 09:17:57;;;;;;;3.20;1.80;;;;;;;25.99;28.05;98733.31;4966614;28;20313;-49
2022/08/12 09:20:25;;;;;;;2.20;1.57;;;;;;;26.01;27.95;98723.16;4972017;28;20211;-49
2022/08/12 09:22:53;;;;;;;3.83;1.43;;;;;;;26.09;27.75;98723.53;4972677;28;20217;-50
2022/08/12 09:25:20;;;;;;;2.00;1.50;;;;;;;26.19;27.46;98732.78;4969428;28;20692;-49
2022/08/12 09:27:50;;;;;;;2.47;1.70;;;;;;;26.14;27.31;98722.00;4968048;28;20285;-50
2022/08/12 09:30:17;;;;;;;7.03;1.70;;;;;;;25.99;27.63;98712.72;4970917;28;20859;-50
2022/08/12 09:32:49;;;;;;;1.92;1.60;;;;;;;26.09;27.42;98715.53;4967385;28;20244;-50
2022/08/12 09:35:20;;;;;;;2.33;1.60;;;;;;;26.15;27.60;98704.91;4967934;28;20200;-50
2022/08/12 09:37:47;;;;;;;4.27;1.57;;;;;;;26.26;28.04;98703.13;4968710;28;20578;-50
2022/08/12 09:40:15;;;;;;;2.43;1.90;;;;;;;26.39;27.83;98710.75;4970045;28;20286;-51
2022/08/12 09:45:27;;;;;;;3.55;1.70;;;;;;;26.50;27.21;98700.97;4969466;28;20197;-49
2022/08/12 09:47:54;;;;;;;5.30;1.60;;;;;;;26.61;27.42;98691.16;4968560;28;20237;-53
2022/08/12 09:50:22;;;;;;;7.57;1.70;;;;;;;26.73;27.18;98688.28;4969142;28;20296;-51
2022/08/12 09:53:04;;;;;;;3.58;1.77;;;;;;;26.86;27.13;98685.22;4969701;28;20223;-49
2022/08/12 09:55:32;;;;;;;2.80;1.70;;;;;;;26.95;26.73;98696.28;4969927;28;20251;-53
2022/08/12 09:57:59;;;;;;;7.93;1.80;;;;;;;27.03;27.73;98681.56;4985900;28;20236;-53
2022/08/12 10:00:26;;;;;;;4.90;1.70;;;;;;;27.01;26.95;98670.31;4970212;28;20195;-51
2022/08/12 10:03:02;;;;;;;5.45;1.70;;;;;;;27.02;26.30;98680.78;4968601;28;20244;-49
2022/08/12 10:05:32;;;;;;;2.55;1.55;;;;;;;27.07;26.64;98682.69;4969589;28;20207;-49
2022/08/12 10:08:01;;;;;;;2.80;1.90;;;;;;;27.01;25.73;98670.31;4970895;28;20222;-50
2022/08/12 10:10:27;;;;;;;5.72;1.45;;;;;;;27.04;26.02;98675.16;4969578;28;20442;-52
2022/08/12 10:15:43;;;;;;;3.90;1.60;;;;;;;27.05;26.45;98671.41;4969205;28;20192;-50
2022/08/12 10:18:11;;;;;;;2.78;1.65;;;;;;;27.17;26.65;98669.34;4965799;28;20234;-49
2022/08/12 10:20:40;;;;;;;3.72;1.50;;;;;;;27.32;25.62;98665.13;4967449;28;20464;-49
2022/08/12 10:23:07;;;;;;;3.35;1.33;;;;;;;27.13;25.35;98651.34;4966729;28;20225;-52
2022/08/12 10:31:03;;;;;;;2.53;1.60;;;;;;;27.40;24.91;98645.88;4969468;28;20190;-50
2022/08/12 10:33:32;;;;;;;3.10;1.55;;;;;;;27.40;24.43;98646.69;4970013;28;20206;-52
2022/08/12 10:36:00;;;;;;;1.92;1.48;;;;;;;27.48;24.79;98656.13;4969656;28;20191;-49
2022/08/12 10:38:28;;;;;;;3.28;1.45;;;;;;;27.28;24.43;98643.41;4970330;28;20193;-51
2022/08/12 10:43:43;;;;;;;1.97;1.30;;;;;;;27.43;24.30;98645.38;4967837;28;20207;-51
2022/08/12 10:46:16;;;;;;;2.78;1.60;;;;;;;27.50;24.11;98647.81;4968128;28;20209;-49
2022/08/12 10:48:46;;;;;;;2.63;1.30;;;;;;;27.44;24.56;98660.38;4969569;28;20314;-51
2022/08/12 10:51:17;;;;;;;2.35;1.52;;;;;;;27.52;24.41;98640.31;4968454;28;20204;-50
2022/08/12 10:53:45;;;;;;;2.05;1.42;;;;;;;27.65;25.22;98650.56;4971693;28;20926;-49
2022/08/12 10:56:12;;;;;;;2.45;1.40;;;;;;;27.71;24.09;98646.00;4968284;28;20211;-52
2022/08/12 10:58:39;;;;;;;2.38;1.40;;;;;;;27.76;24.04;98631.81;4969071;28;20730;-51
2022/08/12 11:01:09;;;;;;;1.67;1.30;;;;;;;27.81;24.24;98650.63;4964168;28;20236;-49
2022/08/12 11:03:37;;;;;;;3.15;1.42;;;;;;;27.92;24.06;98638.84;4968062;28;20292;-49
2022/08/12 11:06:05;;;;;;;3.97;1.50;;;;;;;27.87;23.06;98641.50;4969021;28;20613;-52
2022/08/12 11:08:36;;;;;;;2.28;1.20;;;;;;;27.87;23.61;98630.78;4967509;28;20224;-49
2022/08/12 11:11:04;;;;;;;2.58;1.48;;;;;;;28.04;23.88;98635.09;4965626;28;20232;-50
2022/08/12 11:13:30;;;;;;;3.92;1.30;;;;;;;28.30;24.07;98630.59;4965011;28;20246;-52
2022/08/12 11:15:57;;;;;;;1.20;1.10;;;;;;;28.35;22.94;98625.22;4970031;28;20246;-50
2022/08/12 11:18:24;;;;;;;2.65;1.60;;;;;;;28.28;23.29;98622.00;4964230;28;20918;-50
2022/08/12 11:20:53;;;;;;;3.50;1.40;;;;;;;28.19;23.70;98618.25;4963882;28;20247;-49
2022/08/12 11:23:20;;;;;;;1.73;1.50;;;;;;;28.32;22.93;98617.72;4968062;28;20215;-52
2022/08/12 11:25:49;;;;;;;3.90;1.27;;;;;;;28.37;22.91;98623.09;4949010;28;20212;-50
2022/08/12 11:28:16;;;;;;;3.70;1.50;;;;;;;28.48;22.24;98621.19;4964680;28;20253;-49
2022/08/12 11:30:43;;;;;;;1.23;1.13;;;;;;;28.34;22.17;98626.31;4964861;28;20221;-49
2022/08/12 11:33:11;;;;;;;3.00;1.60;;;;;;;28.39;22.08;98617.44;4960239;28;20228;-49
2022/08/12 11:35:40;;;;;;;3.58;1.20;;;;;;;28.45;21.98;98619.03;4962442;28;20228;-50
2022/08/12 11:38:07;;;;;;;3.15;1.33;;;;;;;28.32;22.05;98625.75;4960288;28;20231;-50
2022/08/12 11:40:34;;;;;;;4.93;1.40;;;;;;;28.42;22.39;98625.78;4963355;28;20727;-49
2022/08/12 11:43:02;;;;;;;2.85;1.65;;;;;;;28.51;22.60;98611.81;4963823;28;20585;-56
2022/08/12 11:45:30;;;;;;;1.90;1.50;;;;;;;28.60;22.04;98609.38;4961791;28;20228;-50
2022/08/12 11:47:58;;;;;;;3.05;1.45;;;;;;;28.50;21.95;98599.47;4960887;28;20235;-50
2022/08/12 11:50:25;;;;;;;2.40;1.38;;;;;;;28.67;22.93;98602.63;4964497;28;20270;-50
2022/08/12 11:52:52;;;;;;;1.67;1.35;;;;;;;28.93;22.57;98601.81;4963497;28;20220;-49
2022/08/12 11:55:19;;;;;;;2.47;1.27;;;;;;;29.00;21.79;98597.75;4963429;28;20256;-50
2022/08/12 11:57:50;;;;;;;6.88;1.45;;;;;;;28.89;22.22;98606.13;4962934;28;20232;-52
2022/08/12 12:00:19;;;;;;;1.45;1.35;;;;;;;28.91;21.31;98603.97;4962812;28;20299;-51
2022/08/12 12:02:46;;;;;;;4.20;1.30;;;;;;;28.91;20.58;98595.91;4956169;28;20237;-49
2022/08/12 12:05:14;;;;;;;2.33;1.40;;;;;;;28.90;20.83;98597.78;4965584;28;20240;-49
2022/08/12 12:07:42;;;;;;;6.47;1.30;;;;;;;28.96;21.49;98596.69;4967807;28;20718;-52
2022/08/12 12:10:11;;;;;;;3.35;1.30;;;;;;;29.17;21.09;98596.63;4966703;28;20245;-50
2022/08/12 12:12:37;;;;;;;2.75;1.40;;;;;;;29.25;21.44;98592.56;4964890;28;20222;-51
2022/08/12 12:15:05;;;;;;;5.32;1.60;;;;;;;29.28;21.34;98592.00;4969693;28;20249;-52
2022/08/12 12:17:36;;;;;;;2.10;1.38;;;;;;;29.15;21.28;98583.47;4965345;28;20219;-51
2022/08/12 12:20:05;;;;;;;2.95;1.30;;;;;;;29.10;21.40;98578.13;4965276;28;20244;-50
2022/08/12 12:22:32;;;;;;;1.92;1.35;;;;;;;29.10;21.09;98570.06;4965845;28;20220;-50
2022/08/12 12:24:59;;;;;;;3.35;1.17;;;;;;;29.12;21.79;98572.47;4970579;28;20581;-50
2022/08/12 12:27:26;;;;;;;4.00;1.88;;;;;;;29.08;21.81;98572.22;4966244;28;20212;-49
2022/08/12 12:29:52;;;;;;;4.20;1.45;;;;;;;29.16;21.69;98570.84;4967601;28;20570;-54
2022/08/12 12:32:19;;;;;;;2.42;1.70;;;;;;;28.89;22.31;98560.47;4967452;28;20240;-49
2022/08/12 12:34:47;;;;;;;1.60;1.35;;;;;;;29.07;21.94;98553.69;4970335;28;20300;-52
2022/08/12 12:37:14;;;;;;;5.05;1.60;;;;;;;29.17;21.86;98559.00;4968448;28;20220;-49
2022/08/12 12:39:42;;;;;;;4.68;1.73;;;;;;;29.25;21.94;98549.56;4968157;28;20213;-52
2022/08/12 12:42:08;;;;;;;2.33;1.33;;;;;;;29.40;22.17;98551.41;4971837;28;20229;-50
2022/08/12 12:44:35;;;;;;;3.45;1.70;;;;;;;29.13;22.04;98558.78;4971340;28;20217;-52
2022/08/12 12:47:02;;;;;;;1.73;1.63;;;;;;;29.22;22.20;98545.56;4968410;28;20296;-51
2022/08/12 12:49:29;;;;;;;3.53;1.50;;;;;;;29.31;21.94;98545.75;4972484;28;20227;-52
2022/08/12 12:52:16;;;;;;;4.60;1.80;;;;;;;29.39;22.31;98539.84;4971276;28;20952;-50
2022/08/12 12:54:51;;;;;;;3.35;1.80;;;;;;;29.65;22.72;98534.31;4972263;28;20221;-48
2022/08/12 12:57:18;;;;;;;2.80;1.55;;;;;;;29.72;21.97;98542.06;4971396;28;20256;-52
2022/08/12 13:00:13;;;;;;;3.25;1.40;;;;;;;29.70;21.96;98539.66;4971219;28;20220;-49
2022/08/12 13:02:32;;;;;;;3.40;1.60;;;;;;;29.97;21.48;98537.56;4972802;28;20324;-51
2022/08/12 13:04:58;;;;;;;4.43;1.50;;;;;;;29.74;21.48;98538.00;4967946;28;20722;-48
2022/08/12 13:07:27;;;;;;;3.38;1.60;;;;;;;29.49;21.84;98538.19;4972324;28;20213;-50
2022/08/12 13:09:53;;;;;;;5.32;1.77;;;;;;;29.39;21.96;98522.91;4969440;28;20216;-49
2022/08/12 13:12:20;;;;;;;3.67;1.70;;;;;;;29.16;22.17;98525.16;4968626;28;20237;-51
2022/08/12 13:14:47;;;;;;;1.90;1.50;;;;;;;29.28;21.67;98546.31;4968937;28;20224;-51
2022/08/12 13:17:17;;;;;;;2.80;1.90;;;;;;;29.49;21.46;98549.75;4967259;28;20230;-50
2022/08/12 13:19:44;;;;;;;1.48;1.20;;;;;;;29.74;21.61;98546.09;4967874;28;20240;-50
2022/08/12 13:22:17;;;;;;;3.22;1.50;;;;;;;29.77;20.89;98541.22;4964663;28;20240;-50
2022/08/12 13:24:46;;;;;;;2.30;1.20;;;;;;;29.62;20.65;98531.38;4968847;28;20256;-50
2022/08/12 13:27:14;;;;;;;7.35;1.63;;;;;;;29.42;21.39;98525.84;4971266;28;20229;-49
2022/08/12 13:29:40;;;;;;;2.65;1.40;;;;;;;29.52;21.08;98519.63;4968691;28;20292;-51
2022/08/12 13:32:07;;;;;;;1.73;1.40;;;;;;;29.23;21.38;98525.66;4969868;28;20244;-48